Delta Virtual Airport Information Service

Sydney Kingsford Smith Airport

ICAO: YSSY Country: Australia
Latitude: -33.9461 Longitude: 151.177
Latest Arrival : DAC7438 (KJFK-YSSY) Latest Departure : QFA7589 (C) (YSSY-ZSPD)


WX CaptureLIVE
Data provided by noaa.gov | Fetched at 21:39:45

METAR : YSSY 240200Z 36016KT 9999 VCSH FEW018 SCT055 BKN110 26/18 Q1003 FM0200 01018G28KT 9999 -SHRA SCT030 BKN080 FM0200 MOD TURB BLW 5000FT

TAF : YSSY 232326Z 2400/2506 01018G28KT 9999 -SHRA SCT030 BKN080 BECMG 2410/2411 18025G35KT 9999 -SHRA SCT008 BKN015 OVC025 INTER 2400/2403 5000 SHRA SCT012 TEMPO 2412/2506 3000 SHRA BKN008 PROB40 TEMPO 2403/2411 VRB20G35KT 3000 TSRA SCT010 SCT040CB


Runway Data for YSSY
Data provided by openaviationdata.com

Runway ID Mag Var Hdg Length Elevation Surface ILS Freq ILS Id ILS Slope
7 13 61° 8292 ft 21 ft Asphalt 109.9 ISY 3
16L 13 154° 8011 ft 21 ft Asphalt 110.9 ISS 3
16R 13 154° 13022 ft 21 ft Asphalt 109.5 IKS 3
25 13 241° 8292 ft 21 ft Asphalt 109.7 ISW 3
34L 13 334° 13022 ft 21 ft Asphalt 110.1 ISN 3
34R 13 334° 8011 ft 21 ft Asphalt 109.3 IKN 3

Sydney Kingsford Smith Airport, Australia
Use only for reference purposes



Not for navigational purposes.